Whitewater, Colorado
Current Conditions -  °F | °C
As of 8:53 PM on Saturday 24 Jan 2015 (Local Time) from KGJT Reporting Station
Clear Clear  
Wind Chill: -3°   Ceiling: Unl
Heat Index: -3°   Visibility: 10mi
Dew Point: -8°   Wind: 3mph
Humidity: 71%   Direction: 80°E
Pressure: 30.37"   Gusts: NA
Location:  38.99°N, 108.45°W
Report Text: KGJT 250353Z 08003KT 10SM CLR M03/M08 A3037 RMK AO2 SLP310 T10331078
Loading
Personal Weather Stations






























Interactive Weather Map New forecast layout! Learn more

10-Day Weather Forecast

Advertisements
Track Severe Weather on mobile